Weather History for Auburn, CA

Change the Weather History Date:

Tuesday, October 19, 2010

  Actual Average Record
Temperature  
Mean Temperature 60 °F -  
Max Temperature 73 °F 76 °F 91 °F (1974)
Min Temperature 48 °F 50 °F 30 °F (1949)
Degree Days  
Heating Degree Days 4    
Growing Degree Days 10 (Base 50)    
Moisture  
Dew Point 50 °F    
Average Humidity 74    
Maximum Humidity 100    
Minimum Humidity 47    
Precipitation  
Precipitation 0.00 in - - ()
Sea Level Pressure  
Sea Level Pressure 29.96 in    
Wind  
Wind Speed 1 mph (West)    
Max Wind Speed 7 mph    
Max Gust Speed -    
Visibility 10 miles    
Events      
Averages and records for this station are not official NWS values.
T = Trace of Precipitation, MM = Missing Value Source: NWS Daily Summary

Daily Weather History Graph

Daily Weather History Graph

Search for Another Location

Airport:

Trip Planner

Search our weather history database for the weather conditions in past years. The results will help you decide how hot, cold, wet, or windy it might be!

Date:

Astronomy

Oct. 19, 2010 Rise Set
Actual Time 7:17 AM PDT 6:20 PM PDT
Civil Twilight 6:50 AM PDT 6:47 PM PDT
Nautical Twilight 6:19 AM PDT 7:18 PM PDT
Astronomical Twilight 5:48 AM PDT 7:48 PM PDT
Moon 4:30 PM PDT (10/19) 4:09 AM PDT (10/19)
Length of Visible Light 11h 56m
Length of Day
11h 02m
Waxing Gibbous, 90% of the Moon is Illuminated
Oct 19
Waxing Gibbous
Oct 22
Full
Oct 30
Last Quarter
Nov 5
New
Nov 13
First Quarter

Hourly Weather History & Observations

Time (PDT) Temp. Dew Point Humidity Pressure Visibility Wind Dir Wind Speed Gust Speed Precip Events Conditions
12:10 AM 51.8 °F 50.0 °F 94% 30.00 in 10.0 mi Calm Calm - N/A   Clear
12:30 AM 51.8 °F 48.2 °F 88% 29.99 in 10.0 mi Calm Calm - N/A   Clear
12:50 AM 50.0 °F 48.2 °F 94% 29.99 in 10.0 mi Calm Calm - N/A   Clear
1:10 AM 50.0 °F 48.2 °F 94% 29.99 in 10.0 mi Calm Calm - N/A   Clear
1:30 AM 53.6 °F 51.8 °F 94% 29.99 in 10.0 mi Calm Calm - N/A   Clear
1:50 AM 51.8 °F 50.0 °F 94% 30.00 in 10.0 mi Calm Calm - N/A   Clear
2:10 AM 51.8 °F 50.0 °F 94% 30.00 in 10.0 mi Calm Calm - N/A   Clear
2:30 AM 50.0 °F 48.2 °F 94% 30.00 in 10.0 mi Calm Calm - N/A   Clear
2:50 AM 51.8 °F 50.0 °F 94% 30.00 in 10.0 mi Calm Calm - N/A   Clear
3:10 AM 48.2 °F 48.2 °F 100% 30.00 in 10.0 mi Calm Calm - N/A   Clear
3:30 AM 50.0 °F 48.2 °F 94% 30.00 in 10.0 mi Calm Calm - N/A   Clear
3:50 AM 51.8 °F 48.2 °F 88% 30.00 in 10.0 mi Calm Calm - N/A   Clear
4:10 AM 50.0 °F 48.2 °F 94% 30.00 in 10.0 mi Calm Calm - N/A   Clear
4:30 AM 50.0 °F 48.2 °F 94% 30.00 in 10.0 mi Calm Calm - N/A   Clear
4:50 AM 51.8 °F 50.0 °F 94% 30.00 in 10.0 mi Calm Calm - N/A   Clear
5:10 AM 50.0 °F 48.2 °F 94% 30.00 in 10.0 mi Calm Calm - N/A   Clear
5:30 AM 51.8 °F 50.0 °F 94% 30.00 in 10.0 mi Calm Calm - N/A   Clear
5:50 AM 51.8 °F 48.2 °F 88% 30.00 in 10.0 mi Calm Calm - N/A   Clear
6:10 AM 50.0 °F 48.2 °F 94% 30.00 in 10.0 mi Calm Calm - N/A   Clear
6:30 AM 50.0 °F 48.2 °F 94% 30.00 in 10.0 mi Calm Calm - N/A   Clear
6:50 AM 50.0 °F 48.2 °F 94% 30.00 in 10.0 mi Calm Calm - N/A   Clear
7:10 AM 50.0 °F 48.2 °F 94% 30.00 in 10.0 mi Calm Calm - N/A   Clear
7:30 AM 48.2 °F 46.4 °F 93% 30.00 in 10.0 mi Calm Calm - N/A   Clear
7:50 AM 48.2 °F 46.4 °F 93% 30.00 in 10.0 mi Calm Calm - N/A   Clear
8:10 AM 50.0 °F 48.2 °F 94% 30.00 in 9.0 mi Calm Calm - N/A   Clear
8:30 AM 53.6 °F 51.8 °F 94% 30.00 in 10.0 mi Calm Calm - N/A   Clear
8:50 AM 55.4 °F 51.8 °F 88% 30.00 in 10.0 mi Calm Calm - N/A   Clear
9:10 AM 57.2 °F 51.8 °F 82% 30.00 in 10.0 mi Calm Calm - N/A   Clear
9:30 AM 59.0 °F 51.8 °F 77% 30.00 in 10.0 mi Calm Calm - N/A   Clear
9:50 AM 60.8 °F 51.8 °F 72% 30.00 in 10.0 mi Calm Calm - N/A   Clear
10:10 AM 62.6 °F 51.8 °F 68% 30.00 in 10.0 mi Calm Calm - N/A   Clear
10:30 AM 62.6 °F 51.8 °F 68% 30.00 in 10.0 mi West 4.6 mph - N/A   Clear
10:50 AM 64.4 °F 51.8 °F 64% 30.00 in 10.0 mi NW 3.5 mph - N/A   Clear
11:10 AM 64.4 °F 51.8 °F 64% 29.99 in 10.0 mi WSW 4.6 mph - N/A   Clear
11:30 AM 66.2 °F 51.8 °F 60% 29.99 in 10.0 mi West 4.6 mph - N/A   Clear
12:30 PM 68.0 °F 50.0 °F 52% 29.97 in 10.0 mi West 4.6 mph - N/A   Clear
12:50 PM 69.8 °F 51.8 °F 53% 29.96 in 10.0 mi Calm Calm - N/A   Clear
1:10 PM 69.8 °F 51.8 °F 53% 29.95 in 10.0 mi SW 5.8 mph - N/A   Clear
1:30 PM 71.6 °F 51.8 °F 50% 29.94 in 10.0 mi NW 4.6 mph - N/A   Clear
1:50 PM 69.8 °F 51.8 °F 53% 29.94 in 10.0 mi West 5.8 mph - N/A   Clear
2:10 PM 71.6 °F 51.8 °F 50% 29.93 in 10.0 mi WNW 5.8 mph - N/A   Clear
2:30 PM 71.6 °F 51.8 °F 50% 29.92 in 10.0 mi NNW 4.6 mph - N/A   Clear
2:50 PM 71.6 °F 51.8 °F 50% 29.91 in 10.0 mi WNW 5.8 mph - N/A   Clear
3:10 PM 73.4 °F 51.8 °F 47% 29.91 in 10.0 mi WNW 4.6 mph - N/A   Clear
3:30 PM 73.4 °F 51.8 °F 47% 29.90 in 10.0 mi WNW 5.8 mph - N/A   Clear
3:50 PM 73.4 °F 51.8 °F 47% 29.90 in 10.0 mi WNW 4.6 mph - N/A   Clear
4:10 PM 73.4 °F 51.8 °F 47% 29.89 in 10.0 mi WNW 4.6 mph - N/A   Clear
4:30 PM 73.4 °F 51.8 °F 47% 29.90 in 10.0 mi WNW 4.6 mph - N/A   Clear
4:50 PM 73.4 °F 51.8 °F 47% 29.89 in 10.0 mi West 5.8 mph - N/A   Clear
5:10 PM 73.4 °F 51.8 °F 47% 29.89 in 10.0 mi WSW 6.9 mph - N/A   Clear
5:30 PM 71.6 °F 51.8 °F 50% 29.89 in 10.0 mi West 3.5 mph - N/A   Clear
5:50 PM 71.6 °F 51.8 °F 50% 29.89 in 10.0 mi SW 4.6 mph - N/A   Clear
6:10 PM 69.8 °F 53.6 °F 56% 29.89 in 10.0 mi SW 3.5 mph - N/A   Clear
6:30 PM 69.8 °F 53.6 °F 56% 29.89 in 10.0 mi Calm Calm - N/A   Clear
6:50 PM 68.0 °F 53.6 °F 60% 29.89 in 10.0 mi Calm Calm - N/A   Clear
7:10 PM 64.4 °F 51.8 °F 64% 29.90 in 10.0 mi Calm Calm - N/A   Clear
7:30 PM 66.2 °F 51.8 °F 60% 29.90 in 10.0 mi Calm Calm - N/A   Clear
7:50 PM 64.4 °F 51.8 °F 64% 29.90 in 10.0 mi Calm Calm - N/A   Clear
8:10 PM 62.6 °F 51.8 °F 68% 29.90 in 10.0 mi Calm Calm - N/A   Clear
8:30 PM 62.6 °F 51.8 °F 68% 29.90 in 10.0 mi Calm Calm - N/A   Clear
8:50 PM 60.8 °F 51.8 °F 72% 29.91 in 10.0 mi Calm Calm - N/A   Clear
9:10 PM 59.0 °F 50.0 °F 72% 29.91 in 10.0 mi Calm Calm - N/A   Clear
9:30 PM 60.8 °F 51.8 °F 72% 29.91 in 10.0 mi Calm Calm - N/A   Clear
9:50 PM 60.8 °F 51.8 °F 72% 29.91 in 10.0 mi SE 4.6 mph - N/A   Clear
10:10 PM 60.8 °F 51.8 °F 72% 29.91 in 10.0 mi Calm Calm - N/A   Clear
10:30 PM 59.0 °F 51.8 °F 77% 29.91 in 10.0 mi Calm Calm - N/A   Clear
10:50 PM 60.8 °F 51.8 °F 72% 29.91 in 10.0 mi Calm Calm - N/A   Clear
11:10 PM 60.8 °F 51.8 °F 72% 29.91 in 10.0 mi Calm Calm - N/A   Clear
11:30 PM 57.2 °F 51.8 °F 82% 29.91 in 10.0 mi Calm Calm - N/A   Clear
11:50 PM 57.2 °F 51.8 °F 82% 29.91 in 10.0 mi ESE 3.5 mph - N/A   Clear